TimeEST,TemperatureF,Dew PointF,Humidity,Sea Level PressureIn,VisibilityMPH,Wind Direction,Wind SpeedMPH,Gust SpeedMPH,PrecipitationIn,Events,Conditions,WindDirDegrees,DateUTC
12:53 AM,68.0,63.0,84,29.92,10.0,Calm,Calm,-,N/A,,Overcast,0,2012-11-06 05:53:00
1:53 AM,68.0,63.0,84,29.91,10.0,Calm,Calm,-,N/A,,Overcast,0,2012-11-06 06:53:00
2:53 AM,66.9,63.0,87,29.89,10.0,Calm,Calm,-,N/A,,Overcast,0,2012-11-06 07:53:00
3:53 AM,66.9,64.0,90,29.89,10.0,Calm,Calm,-,N/A,,Mostly Cloudy,0,2012-11-06 08:53:00
4:53 AM,66.0,63.0,90,29.89,10.0,Calm,Calm,-,N/A,,Mostly Cloudy,0,2012-11-06 09:53:00
5:53 AM,66.0,63.0,90,29.90,10.0,Calm,Calm,-,N/A,,Scattered Clouds,0,2012-11-06 10:53:00
6:53 AM,66.0,63.0,90,29.93,10.0,Calm,Calm,-,N/A,,Overcast,0,2012-11-06 11:53:00
7:53 AM,70.0,66.0,87,29.93,10.0,Calm,Calm,-,N/A,,Mostly Cloudy,0,2012-11-06 12:53:00
8:53 AM,73.0,64.0,73,29.92,10.0,SSW,4.6,-,N/A,,Mostly Cloudy,200,2012-11-06 13:53:00
9:53 AM,77.0,60.1,56,29.94,10.0,SW,9.2,-,N/A,,Mostly Cloudy,230,2012-11-06 14:53:00
10:53 AM,79.0,59.0,50,29.92,10.0,SW,12.7,-,N/A,,Scattered Clouds,220,2012-11-06 15:53:00
11:53 AM,79.0,59.0,50,29.88,10.0,WSW,13.8,-,N/A,,Mostly Cloudy,250,2012-11-06 16:53:00
12:53 PM,80.1,57.9,47,29.85,10.0,West,13.8,-,N/A,,Mostly Cloudy,260,2012-11-06 17:53:00
1:53 PM,82.0,55.0,39,29.82,10.0,WSW,12.7,-,N/A,,Mostly Cloudy,240,2012-11-06 18:53:00
2:53 PM,82.0,55.0,39,29.82,10.0,West,12.7,20.7,N/A,,Scattered Clouds,280,2012-11-06 19:53:00
3:53 PM,80.1,55.9,43,29.82,10.0,West,16.1,20.7,N/A,,Mostly Cloudy,270,2012-11-06 20:53:00
4:53 PM,78.1,57.0,48,29.83,10.0,West,13.8,20.7,N/A,,Mostly Cloudy,280,2012-11-06 21:53:00
5:53 PM,75.0,57.9,55,29.84,10.0,West,11.5,-,N/A,,Overcast,280,2012-11-06 22:53:00
6:53 PM,75.0,57.9,55,29.84,10.0,WSW,8.1,-,0.00,,Mostly Cloudy,240,2012-11-06 23:53:00
7:53 PM,72.0,59.0,64,29.85,10.0,West,6.9,-,N/A,,Partly Cloudy,260,2012-11-07 00:53:00
8:53 PM,71.1,60.1,68,29.86,10.0,WSW,8.1,-,N/A,,Partly Cloudy,250,2012-11-07 01:53:00
9:53 PM,69.1,62.1,78,29.87,10.0,West,8.1,-,N/A,,Partly Cloudy,260,2012-11-07 02:53:00
10:53 PM,69.1,62.1,78,29.86,10.0,West,6.9,-,N/A,,Scattered Clouds,260,2012-11-07 03:53:00
11:53 PM,68.0,62.1,81,29.86,10.0,West,6.9,-,N/A,,Mostly Cloudy,260,2012-11-07 04:53:00